sensor_id;sensor_type;location;lat;lon;timestamp;temperature;humidity
12568;DHT22;6349;50.904;6.136;2024-02-16T00:00:59;13.30;99.90
12568;DHT22;6349;50.904;6.136;2024-02-16T00:03:00;13.40;99.90
12568;DHT22;6349;50.904;6.136;2024-02-16T00:05:01;13.40;99.90
12568;DHT22;6349;50.904;6.136;2024-02-16T00:07:01;13.40;99.90
12568;DHT22;6349;50.904;6.136;2024-02-16T00:09:02;13.40;99.90
12568;DHT22;6349;50.904;6.136;2024-02-16T00:11:02;13.40;99.90
12568;DHT22;6349;50.904;6.136;2024-02-16T00:13:03;13.40;99.90
12568;DHT22;6349;50.904;6.136;2024-02-16T00:15:04;13.50;99.90
12568;DHT22;6349;50.904;6.136;2024-02-16T00:17:05;13.50;99.90
12568;DHT22;6349;50.904;6.136;2024-02-16T00:19:05;13.50;99.90
12568;DHT22;6349;50.904;6.136;2024-02-16T00:21:06;13.60;99.90
12568;DHT22;6349;50.904;6.136;2024-02-16T00:23:06;13.60;99.90
12568;DHT22;6349;50.904;6.136;2024-02-16T00:25:07;13.60;99.90
12568;DHT22;6349;50.904;6.136;2024-02-16T00:27:08;13.60;99.90
12568;DHT22;6349;50.904;6.136;2024-02-16T00:29:08;13.60;99.90
12568;DHT22;6349;50.904;6.136;2024-02-16T00:31:09;13.60;99.90
12568;DHT22;6349;50.904;6.136;2024-02-16T00:33:09;13.70;99.90
12568;DHT22;6349;50.904;6.136;2024-02-16T00:35:10;13.70;99.90
12568;DHT22;6349;50.904;6.136;2024-02-16T00:37:11;13.80;99.90
12568;DHT22;6349;50.904;6.136;2024-02-16T00:39:12;13.80;99.90
12568;DHT22;6349;50.904;6.136;2024-02-16T00:41:19;13.80;99.90
12568;DHT22;6349;50.904;6.136;2024-02-16T00:43:22;13.90;99.90
12568;DHT22;6349;50.904;6.136;2024-02-16T00:45:23;13.90;99.90
12568;DHT22;6349;50.904;6.136;2024-02-16T00:47:23;13.90;99.90
12568;DHT22;6349;50.904;6.136;2024-02-16T00:49:24;14.00;99.90
12568;DHT22;6349;50.904;6.136;2024-02-16T00:51:25;14.00;99.90
12568;DHT22;6349;50.904;6.136;2024-02-16T00:53:26;14.00;99.90
12568;DHT22;6349;50.904;6.136;2024-02-16T00:55:27;14.10;99.90
12568;DHT22;6349;50.904;6.136;2024-02-16T00:57:27;14.10;99.90
12568;DHT22;6349;50.904;6.136;2024-02-16T00:59:28;14.10;99.90
12568;DHT22;6349;50.904;6.136;2024-02-16T01:01:29;14.10;99.90
12568;DHT22;6349;50.904;6.136;2024-02-16T01:03:29;14.20;99.90
12568;DHT22;6349;50.904;6.136;2024-02-16T01:05:30;14.20;99.90
12568;DHT22;6349;50.904;6.136;2024-02-16T01:07:31;14.20;99.90
12568;DHT22;6349;50.904;6.136;2024-02-16T01:09:32;14.30;99.90
12568;DHT22;6349;50.904;6.136;2024-02-16T01:11:33;14.30;99.90
12568;DHT22;6349;50.904;6.136;2024-02-16T01:13:34;14.30;99.90
12568;DHT22;6349;50.904;6.136;2024-02-16T01:15:34;14.40;99.90
12568;DHT22;6349;50.904;6.136;2024-02-16T01:17:37;14.30;99.90
12568;DHT22;6349;50.904;6.136;2024-02-16T01:19:39;14.20;99.90
12568;DHT22;6349;50.904;6.136;2024-02-16T01:21:40;14.10;99.90
12568;DHT22;6349;50.904;6.136;2024-02-16T01:23:41;14.00;99.90
12568;DHT22;6349;50.904;6.136;2024-02-16T01:25:42;14.00;99.90
12568;DHT22;6349;50.904;6.136;2024-02-16T01:27:42;14.00;99.90
12568;DHT22;6349;50.904;6.136;2024-02-16T01:29:43;13.90;99.90
12568;DHT22;6349;50.904;6.136;2024-02-16T01:31:43;13.90;99.90
12568;DHT22;6349;50.904;6.136;2024-02-16T01:33:44;13.90;99.90
12568;DHT22;6349;50.904;6.136;2024-02-16T01:35:44;13.80;99.90
12568;DHT22;6349;50.904;6.136;2024-02-16T01:37:46;13.70;99.90
12568;DHT22;6349;50.904;6.136;2024-02-16T01:39:47;13.70;99.90
12568;DHT22;6349;50.904;6.136;2024-02-16T01:41:48;13.60;99.90
12568;DHT22;6349;50.904;6.136;2024-02-16T01:43:48;13.50;99.90
12568;DHT22;6349;50.904;6.136;2024-02-16T01:45:49;13.50;99.90
12568;DHT22;6349;50.904;6.136;2024-02-16T01:47:50;13.40;99.90
12568;DHT22;6349;50.904;6.136;2024-02-16T01:49:51;13.40;99.90
12568;DHT22;6349;50.904;6.136;2024-02-16T01:51:52;13.40;99.90
12568;DHT22;6349;50.904;6.136;2024-02-16T01:53:52;13.40;99.90
12568;DHT22;6349;50.904;6.136;2024-02-16T01:55:55;13.40;99.90
12568;DHT22;6349;50.904;6.136;2024-02-16T01:57:57;13.30;99.90
12568;DHT22;6349;50.904;6.136;2024-02-16T01:59:58;13.30;99.90
12568;DHT22;6349;50.904;6.136;2024-02-16T02:01:59;13.30;99.90
12568;DHT22;6349;50.904;6.136;2024-02-16T02:04:00;13.40;99.90
12568;DHT22;6349;50.904;6.136;2024-02-16T02:06:01;13.30;99.90
12568;DHT22;6349;50.904;6.136;2024-02-16T02:08:11;13.40;99.90
12568;DHT22;6349;50.904;6.136;2024-02-16T02:10:12;13.40;99.90
12568;DHT22;6349;50.904;6.136;2024-02-16T02:12:13;13.50;99.90
12568;DHT22;6349;50.904;6.136;2024-02-16T02:14:14;13.60;99.90
12568;DHT22;6349;50.904;6.136;2024-02-16T02:16:15;13.60;99.90
12568;DHT22;6349;50.904;6.136;2024-02-16T02:18:17;13.60;99.90
12568;DHT22;6349;50.904;6.136;2024-02-16T02:20:18;13.60;99.90
12568;DHT22;6349;50.904;6.136;2024-02-16T02:22:19;13.60;99.90
12568;DHT22;6349;50.904;6.136;2024-02-16T02:24:20;13.70;99.90
12568;DHT22;6349;50.904;6.136;2024-02-16T02:26:22;13.60;99.90
12568;DHT22;6349;50.904;6.136;2024-02-16T02:28:23;13.60;99.90
12568;DHT22;6349;50.904;6.136;2024-02-16T02:30:24;13.60;99.90
12568;DHT22;6349;50.904;6.136;2024-02-16T02:32:25;13.60;99.90
12568;DHT22;6349;50.904;6.136;2024-02-16T02:34:26;13.60;99.90
12568;DHT22;6349;50.904;6.136;2024-02-16T02:36:26;13.60;99.90
12568;DHT22;6349;50.904;6.136;2024-02-16T02:38:27;13.50;99.90
12568;DHT22;6349;50.904;6.136;2024-02-16T02:40:28;13.50;99.90
12568;DHT22;6349;50.904;6.136;2024-02-16T02:42:28;13.50;99.90
12568;DHT22;6349;50.904;6.136;2024-02-16T02:44:29;13.50;99.90
12568;DHT22;6349;50.904;6.136;2024-02-16T02:46:31;13.60;99.90
12568;DHT22;6349;50.904;6.136;2024-02-16T02:48:32;13.50;99.90
12568;DHT22;6349;50.904;6.136;2024-02-16T02:50:32;13.50;99.90
12568;DHT22;6349;50.904;6.136;2024-02-16T02:52:33;13.50;99.90
12568;DHT22;6349;50.904;6.136;2024-02-16T02:54:34;13.40;99.90
12568;DHT22;6349;50.904;6.136;2024-02-16T02:56:34;13.40;99.90
12568;DHT22;6349;50.904;6.136;2024-02-16T02:58:35;13.40;99.90
12568;DHT22;6349;50.904;6.136;2024-02-16T03:00:36;13.40;99.90
12568;DHT22;6349;50.904;6.136;2024-02-16T03:02:40;13.50;99.90
12568;DHT22;6349;50.904;6.136;2024-02-16T03:04:41;13.50;99.90
12568;DHT22;6349;50.904;6.136;2024-02-16T03:06:42;13.60;99.90
12568;DHT22;6349;50.904;6.136;2024-02-16T03:08:42;13.60;99.90
12568;DHT22;6349;50.904;6.136;2024-02-16T03:10:43;13.70;99.90
12568;DHT22;6349;50.904;6.136;2024-02-16T03:12:44;13.70;99.90
12568;DHT22;6349;50.904;6.136;2024-02-16T03:14:45;13.70;99.90
12568;DHT22;6349;50.904;6.136;2024-02-16T03:16:45;13.70;99.90
12568;DHT22;6349;50.904;6.136;2024-02-16T03:18:46;13.70;99.90
12568;DHT22;6349;50.904;6.136;2024-02-16T03:20:47;13.70;99.90
12568;DHT22;6349;50.904;6.136;2024-02-16T03:22:48;13.70;99.90
12568;DHT22;6349;50.904;6.136;2024-02-16T03:24:49;13.70;99.90
12568;DHT22;6349;50.904;6.136;2024-02-16T03:26:50;13.70;99.90
12568;DHT22;6349;50.904;6.136;2024-02-16T03:28:50;13.60;99.90
12568;DHT22;6349;50.904;6.136;2024-02-16T03:30:51;13.60;99.90
12568;DHT22;6349;50.904;6.136;2024-02-16T03:32:51;13.60;99.90
12568;DHT22;6349;50.904;6.136;2024-02-16T03:34:52;13.60;99.90
12568;DHT22;6349;50.904;6.136;2024-02-16T03:36:53;13.60;99.90
12568;DHT22;6349;50.904;6.136;2024-02-16T03:38:54;13.60;99.90
12568;DHT22;6349;50.904;6.136;2024-02-16T03:40:55;13.60;99.90
12568;DHT22;6349;50.904;6.136;2024-02-16T03:42:56;13.60;99.90
12568;DHT22;6349;50.904;6.136;2024-02-16T03:44:57;13.60;99.90
12568;DHT22;6349;50.904;6.136;2024-02-16T03:46:58;13.60;99.90
12568;DHT22;6349;50.904;6.136;2024-02-16T03:48:59;13.60;99.90
12568;DHT22;6349;50.904;6.136;2024-02-16T03:50:59;13.60;99.90
12568;DHT22;6349;50.904;6.136;2024-02-16T03:53:00;13.70;99.90
12568;DHT22;6349;50.904;6.136;2024-02-16T03:55:01;13.70;99.90
12568;DHT22;6349;50.904;6.136;2024-02-16T03:57:01;13.70;99.90
12568;DHT22;6349;50.904;6.136;2024-02-16T03:59:04;13.70;99.90
12568;DHT22;6349;50.904;6.136;2024-02-16T04:01:05;13.70;99.90
12568;DHT22;6349;50.904;6.136;2024-02-16T04:03:07;13.80;99.90
12568;DHT22;6349;50.904;6.136;2024-02-16T04:05:08;13.90;99.90
12568;DHT22;6349;50.904;6.136;2024-02-16T04:07:08;13.90;99.90
12568;DHT22;6349;50.904;6.136;2024-02-16T04:09:09;14.00;99.90
12568;DHT22;6349;50.904;6.136;2024-02-16T04:11:13;14.00;99.90
12568;DHT22;6349;50.904;6.136;2024-02-16T04:13:15;14.10;99.90
12568;DHT22;6349;50.904;6.136;2024-02-16T04:15:16;14.10;99.90
12568;DHT22;6349;50.904;6.136;2024-02-16T04:17:16;14.20;99.90
12568;DHT22;6349;50.904;6.136;2024-02-16T04:19:17;14.20;99.90
12568;DHT22;6349;50.904;6.136;2024-02-16T04:21:18;14.20;99.90
12568;DHT22;6349;50.904;6.136;2024-02-16T04:23:18;14.20;99.90
12568;DHT22;6349;50.904;6.136;2024-02-16T04:25:19;14.20;99.90
12568;DHT22;6349;50.904;6.136;2024-02-16T04:27:20;14.20;99.90
12568;DHT22;6349;50.904;6.136;2024-02-16T04:29:20;14.20;99.90
12568;DHT22;6349;50.904;6.136;2024-02-16T04:31:21;14.20;99.90
12568;DHT22;6349;50.904;6.136;2024-02-16T04:33:22;14.20;99.90
12568;DHT22;6349;50.904;6.136;2024-02-16T04:35:23;14.20;99.90
12568;DHT22;6349;50.904;6.136;2024-02-16T04:37:23;14.20;99.90
12568;DHT22;6349;50.904;6.136;2024-02-16T04:39:24;14.20;99.90
12568;DHT22;6349;50.904;6.136;2024-02-16T04:41:24;14.20;99.90
12568;DHT22;6349;50.904;6.136;2024-02-16T04:43:25;14.20;99.90
12568;DHT22;6349;50.904;6.136;2024-02-16T04:45:26;14.20;99.90
12568;DHT22;6349;50.904;6.136;2024-02-16T04:47:27;14.20;99.90
12568;DHT22;6349;50.904;6.136;2024-02-16T04:49:28;14.20;99.90
12568;DHT22;6349;50.904;6.136;2024-02-16T04:51:28;14.30;99.90
12568;DHT22;6349;50.904;6.136;2024-02-16T04:53:29;14.30;99.90
12568;DHT22;6349;50.904;6.136;2024-02-16T04:55:30;14.30;99.90
12568;DHT22;6349;50.904;6.136;2024-02-16T04:57:35;14.30;99.90
12568;DHT22;6349;50.904;6.136;2024-02-16T04:59:36;14.20;99.90
12568;DHT22;6349;50.904;6.136;2024-02-16T05:01:36;14.30;99.90
12568;DHT22;6349;50.904;6.136;2024-02-16T05:03:37;14.30;99.90
12568;DHT22;6349;50.904;6.136;2024-02-16T05:05:40;14.20;99.90
12568;DHT22;6349;50.904;6.136;2024-02-16T05:07:48;14.20;99.90
12568;DHT22;6349;50.904;6.136;2024-02-16T05:09:49;14.20;99.90
12568;DHT22;6349;50.904;6.136;2024-02-16T05:11:50;14.20;99.90
12568;DHT22;6349;50.904;6.136;2024-02-16T05:13:51;14.20;99.90
12568;DHT22;6349;50.904;6.136;2024-02-16T05:15:52;14.20;99.90
12568;DHT22;6349;50.904;6.136;2024-02-16T05:17:55;14.20;99.90
12568;DHT22;6349;50.904;6.136;2024-02-16T05:19:55;14.20;99.90
12568;DHT22;6349;50.904;6.136;2024-02-16T05:21:56;14.20;99.90
12568;DHT22;6349;50.904;6.136;2024-02-16T05:23:56;14.20;99.90
12568;DHT22;6349;50.904;6.136;2024-02-16T05:25:57;14.20;99.90
12568;DHT22;6349;50.904;6.136;2024-02-16T05:27:57;14.20;99.90
12568;DHT22;6349;50.904;6.136;2024-02-16T05:29:59;14.20;99.90
12568;DHT22;6349;50.904;6.136;2024-02-16T05:32:00;14.20;99.90
12568;DHT22;6349;50.904;6.136;2024-02-16T05:34:00;14.20;99.90
12568;DHT22;6349;50.904;6.136;2024-02-16T05:36:01;14.20;99.90
12568;DHT22;6349;50.904;6.136;2024-02-16T05:38:04;14.20;99.90
12568;DHT22;6349;50.904;6.136;2024-02-16T05:40:11;14.20;99.90
12568;DHT22;6349;50.904;6.136;2024-02-16T05:42:46;14.10;99.90
12568;DHT22;6349;50.904;6.136;2024-02-16T05:44:46;14.10;99.90
12568;DHT22;6349;50.904;6.136;2024-02-16T05:46:47;14.10;99.90
12568;DHT22;6349;50.904;6.136;2024-02-16T05:48:48;14.10;99.90
12568;DHT22;6349;50.904;6.136;2024-02-16T05:50:48;14.10;99.90
12568;DHT22;6349;50.904;6.136;2024-02-16T05:52:49;14.10;99.90
12568;DHT22;6349;50.904;6.136;2024-02-16T05:54:50;14.10;99.90
12568;DHT22;6349;50.904;6.136;2024-02-16T05:56:50;14.10;99.90
12568;DHT22;6349;50.904;6.136;2024-02-16T05:58:51;14.00;99.90
12568;DHT22;6349;50.904;6.136;2024-02-16T06:00:52;14.00;99.90
12568;DHT22;6349;50.904;6.136;2024-02-16T06:02:53;14.00;99.90
12568;DHT22;6349;50.904;6.136;2024-02-16T06:04:54;14.00;99.90
12568;DHT22;6349;50.904;6.136;2024-02-16T06:06:55;14.00;99.90
12568;DHT22;6349;50.904;6.136;2024-02-16T06:08:56;14.00;99.90
12568;DHT22;6349;50.904;6.136;2024-02-16T06:10:56;13.90;99.90
12568;DHT22;6349;50.904;6.136;2024-02-16T06:12:57;13.90;99.90
12568;DHT22;6349;50.904;6.136;2024-02-16T06:14:57;13.80;99.90
12568;DHT22;6349;50.904;6.136;2024-02-16T06:16:58;13.80;99.90
12568;DHT22;6349;50.904;6.136;2024-02-16T06:18:59;13.80;99.90
12568;DHT22;6349;50.904;6.136;2024-02-16T06:21:00;13.80;99.90
12568;DHT22;6349;50.904;6.136;2024-02-16T06:23:01;13.80;99.90
12568;DHT22;6349;50.904;6.136;2024-02-16T06:25:02;13.70;99.90
12568;DHT22;6349;50.904;6.136;2024-02-16T06:27:03;13.80;99.90
12568;DHT22;6349;50.904;6.136;2024-02-16T06:29:04;13.70;99.90
12568;DHT22;6349;50.904;6.136;2024-02-16T06:31:04;13.70;99.90
12568;DHT22;6349;50.904;6.136;2024-02-16T06:33:05;13.70;99.90
12568;DHT22;6349;50.904;6.136;2024-02-16T06:35:07;13.70;99.90
12568;DHT22;6349;50.904;6.136;2024-02-16T06:37:07;13.60;99.90
12568;DHT22;6349;50.904;6.136;2024-02-16T06:39:08;13.60;99.90
12568;DHT22;6349;50.904;6.136;2024-02-16T06:41:12;13.60;99.90
12568;DHT22;6349;50.904;6.136;2024-02-16T06:43:13;13.60;99.90
12568;DHT22;6349;50.904;6.136;2024-02-16T06:45:13;13.60;99.90
12568;DHT22;6349;50.904;6.136;2024-02-16T06:47:14;13.60;99.90
12568;DHT22;6349;50.904;6.136;2024-02-16T06:49:15;13.60;99.90
12568;DHT22;6349;50.904;6.136;2024-02-16T06:51:15;13.60;99.90
12568;DHT22;6349;50.904;6.136;2024-02-16T06:53:16;13.60;99.90
12568;DHT22;6349;50.904;6.136;2024-02-16T06:55:16;13.60;99.90
12568;DHT22;6349;50.904;6.136;2024-02-16T06:57:17;13.60;99.90
12568;DHT22;6349;50.904;6.136;2024-02-16T06:59:18;13.50;99.90
12568;DHT22;6349;50.904;6.136;2024-02-16T07:01:18;13.50;99.90
12568;DHT22;6349;50.904;6.136;2024-02-16T07:03:19;13.50;99.90
12568;DHT22;6349;50.904;6.136;2024-02-16T07:05:19;13.40;99.90
12568;DHT22;6349;50.904;6.136;2024-02-16T07:07:20;13.40;99.90
12568;DHT22;6349;50.904;6.136;2024-02-16T07:09:21;13.40;99.90
12568;DHT22;6349;50.904;6.136;2024-02-16T07:11:22;13.40;99.90
12568;DHT22;6349;50.904;6.136;2024-02-16T07:13:23;13.40;99.90
12568;DHT22;6349;50.904;6.136;2024-02-16T07:15:23;13.40;99.90
12568;DHT22;6349;50.904;6.136;2024-02-16T07:17:24;13.40;99.90
12568;DHT22;6349;50.904;6.136;2024-02-16T07:19:25;13.30;99.90
12568;DHT22;6349;50.904;6.136;2024-02-16T07:21:26;13.30;99.90
12568;DHT22;6349;50.904;6.136;2024-02-16T07:23:26;13.30;99.90
12568;DHT22;6349;50.904;6.136;2024-02-16T07:25:27;13.30;99.90
12568;DHT22;6349;50.904;6.136;2024-02-16T07:27:28;13.30;99.90
12568;DHT22;6349;50.904;6.136;2024-02-16T07:29:29;13.30;99.90
12568;DHT22;6349;50.904;6.136;2024-02-16T07:31:34;13.40;99.90
12568;DHT22;6349;50.904;6.136;2024-02-16T07:33:34;13.40;99.90
12568;DHT22;6349;50.904;6.136;2024-02-16T07:35:35;13.30;99.90
12568;DHT22;6349;50.904;6.136;2024-02-16T07:37:36;13.30;99.90
12568;DHT22;6349;50.904;6.136;2024-02-16T07:39:36;13.40;99.90
12568;DHT22;6349;50.904;6.136;2024-02-16T07:41:37;13.40;99.90
12568;DHT22;6349;50.904;6.136;2024-02-16T07:43:38;13.40;99.90
12568;DHT22;6349;50.904;6.136;2024-02-16T07:45:39;13.40;99.90
12568;DHT22;6349;50.904;6.136;2024-02-16T07:47:42;13.40;99.90
12568;DHT22;6349;50.904;6.136;2024-02-16T07:49:44;13.40;99.90
12568;DHT22;6349;50.904;6.136;2024-02-16T07:51:44;13.40;99.90
12568;DHT22;6349;50.904;6.136;2024-02-16T07:53:45;13.50;99.90
12568;DHT22;6349;50.904;6.136;2024-02-16T07:55:46;13.50;99.90
12568;DHT22;6349;50.904;6.136;2024-02-16T07:57:47;13.50;99.90
12568;DHT22;6349;50.904;6.136;2024-02-16T07:59:47;13.50;99.90
12568;DHT22;6349;50.904;6.136;2024-02-16T08:01:48;13.50;99.90
12568;DHT22;6349;50.904;6.136;2024-02-16T08:03:48;13.50;99.90
12568;DHT22;6349;50.904;6.136;2024-02-16T08:05:49;13.60;99.90
12568;DHT22;6349;50.904;6.136;2024-02-16T08:07:50;13.60;99.90
12568;DHT22;6349;50.904;6.136;2024-02-16T08:09:51;13.60;99.90
12568;DHT22;6349;50.904;6.136;2024-02-16T08:11:51;13.60;99.90
12568;DHT22;6349;50.904;6.136;2024-02-16T08:13:52;13.60;99.90
12568;DHT22;6349;50.904;6.136;2024-02-16T08:15:52;13.60;99.90
12568;DHT22;6349;50.904;6.136;2024-02-16T08:17:53;13.70;99.90
12568;DHT22;6349;50.904;6.136;2024-02-16T08:19:54;13.70;99.90
12568;DHT22;6349;50.904;6.136;2024-02-16T08:21:54;13.70;99.90
12568;DHT22;6349;50.904;6.136;2024-02-16T08:23:55;13.70;99.90
12568;DHT22;6349;50.904;6.136;2024-02-16T08:25:56;13.70;99.90
12568;DHT22;6349;50.904;6.136;2024-02-16T08:27:57;13.70;99.90
12568;DHT22;6349;50.904;6.136;2024-02-16T08:29:58;13.70;99.90
12568;DHT22;6349;50.904;6.136;2024-02-16T08:31:58;13.70;99.90
12568;DHT22;6349;50.904;6.136;2024-02-16T08:33:59;13.80;99.90
12568;DHT22;6349;50.904;6.136;2024-02-16T08:36:00;13.70;99.90
12568;DHT22;6349;50.904;6.136;2024-02-16T08:38:00;13.80;99.90
12568;DHT22;6349;50.904;6.136;2024-02-16T08:40:01;13.80;99.90
12568;DHT22;6349;50.904;6.136;2024-02-16T08:42:02;13.70;99.90
12568;DHT22;6349;50.904;6.136;2024-02-16T08:44:03;13.80;99.90
12568;DHT22;6349;50.904;6.136;2024-02-16T08:46:04;13.80;99.90
12568;DHT22;6349;50.904;6.136;2024-02-16T08:48:05;13.80;99.90
12568;DHT22;6349;50.904;6.136;2024-02-16T08:50:05;13.80;99.90
12568;DHT22;6349;50.904;6.136;2024-02-16T08:52:07;13.90;99.90
12568;DHT22;6349;50.904;6.136;2024-02-16T08:54:08;13.90;99.90
12568;DHT22;6349;50.904;6.136;2024-02-16T08:56:09;13.90;99.90
12568;DHT22;6349;50.904;6.136;2024-02-16T08:58:13;13.90;99.90
12568;DHT22;6349;50.904;6.136;2024-02-16T09:00:14;13.90;99.90
12568;DHT22;6349;50.904;6.136;2024-02-16T09:02:17;13.90;99.90
12568;DHT22;6349;50.904;6.136;2024-02-16T09:04:17;13.90;99.90
12568;DHT22;6349;50.904;6.136;2024-02-16T09:06:18;13.90;99.90
12568;DHT22;6349;50.904;6.136;2024-02-16T09:08:19;14.00;99.90
12568;DHT22;6349;50.904;6.136;2024-02-16T09:10:19;13.90;99.90
12568;DHT22;6349;50.904;6.136;2024-02-16T09:12:20;13.90;99.90
12568;DHT22;6349;50.904;6.136;2024-02-16T09:14:20;14.00;99.90
12568;DHT22;6349;50.904;6.136;2024-02-16T09:16:21;14.00;99.90
12568;DHT22;6349;50.904;6.136;2024-02-16T09:18:22;14.00;99.90
12568;DHT22;6349;50.904;6.136;2024-02-16T09:20:22;14.00;99.90
12568;DHT22;6349;50.904;6.136;2024-02-16T09:22:23;14.00;99.90
12568;DHT22;6349;50.904;6.136;2024-02-16T09:24:23;14.00;99.90
12568;DHT22;6349;50.904;6.136;2024-02-16T09:26:28;14.00;99.90
12568;DHT22;6349;50.904;6.136;2024-02-16T09:28:31;14.00;99.90
12568;DHT22;6349;50.904;6.136;2024-02-16T09:30:32;14.10;99.90
12568;DHT22;6349;50.904;6.136;2024-02-16T09:32:33;14.10;99.90
12568;DHT22;6349;50.904;6.136;2024-02-16T09:34:33;14.10;99.90
12568;DHT22;6349;50.904;6.136;2024-02-16T09:36:34;14.20;99.90
12568;DHT22;6349;50.904;6.136;2024-02-16T09:38:37;14.20;99.90
12568;DHT22;6349;50.904;6.136;2024-02-16T09:40:38;14.20;99.90
12568;DHT22;6349;50.904;6.136;2024-02-16T09:42:39;14.20;99.90
12568;DHT22;6349;50.904;6.136;2024-02-16T09:44:40;14.20;99.90
12568;DHT22;6349;50.904;6.136;2024-02-16T09:46:41;14.20;99.90
12568;DHT22;6349;50.904;6.136;2024-02-16T09:48:43;14.20;99.90
12568;DHT22;6349;50.904;6.136;2024-02-16T09:50:50;14.20;99.90
12568;DHT22;6349;50.904;6.136;2024-02-16T09:52:51;14.30;99.90
12568;DHT22;6349;50.904;6.136;2024-02-16T09:54:52;14.30;99.90
12568;DHT22;6349;50.904;6.136;2024-02-16T09:56:52;14.30;99.90
12568;DHT22;6349;50.904;6.136;2024-02-16T09:58:53;14.30;99.90
12568;DHT22;6349;50.904;6.136;2024-02-16T10:00:55;14.30;99.90
12568;DHT22;6349;50.904;6.136;2024-02-16T10:02:57;14.30;99.90
12568;DHT22;6349;50.904;6.136;2024-02-16T10:04:57;14.30;99.90
12568;DHT22;6349;50.904;6.136;2024-02-16T10:06:58;14.30;99.90
12568;DHT22;6349;50.904;6.136;2024-02-16T10:08:59;14.40;99.90
12568;DHT22;6349;50.904;6.136;2024-02-16T10:11:03;14.30;99.90
12568;DHT22;6349;50.904;6.136;2024-02-16T10:13:05;14.30;99.90
12568;DHT22;6349;50.904;6.136;2024-02-16T10:15:06;14.40;99.90
12568;DHT22;6349;50.904;6.136;2024-02-16T10:17:07;14.40;99.90
12568;DHT22;6349;50.904;6.136;2024-02-16T10:19:09;14.40;99.90
12568;DHT22;6349;50.904;6.136;2024-02-16T10:21:13;14.40;99.90
12568;DHT22;6349;50.904;6.136;2024-02-16T10:23:13;14.40;99.90
12568;DHT22;6349;50.904;6.136;2024-02-16T10:25:15;14.40;99.90
12568;DHT22;6349;50.904;6.136;2024-02-16T10:27:16;14.40;99.90
12568;DHT22;6349;50.904;6.136;2024-02-16T10:29:19;14.50;99.90
12568;DHT22;6349;50.904;6.136;2024-02-16T10:31:23;14.50;99.90
12568;DHT22;6349;50.904;6.136;2024-02-16T10:33:28;14.50;99.90
12568;DHT22;6349;50.904;6.136;2024-02-16T10:35:36;14.60;99.90
12568;DHT22;6349;50.904;6.136;2024-02-16T10:37:36;14.60;99.90
12568;DHT22;6349;50.904;6.136;2024-02-16T10:39:37;14.60;99.90
12568;DHT22;6349;50.904;6.136;2024-02-16T10:41:41;14.70;99.90
12568;DHT22;6349;50.904;6.136;2024-02-16T10:43:43;14.70;99.90
12568;DHT22;6349;50.904;6.136;2024-02-16T10:45:44;14.70;99.90
12568;DHT22;6349;50.904;6.136;2024-02-16T10:47:47;14.70;99.90
12568;DHT22;6349;50.904;6.136;2024-02-16T10:49:48;14.70;99.90
12568;DHT22;6349;50.904;6.136;2024-02-16T10:51:52;14.70;99.90
12568;DHT22;6349;50.904;6.136;2024-02-16T10:53:55;14.70;99.90
12568;DHT22;6349;50.904;6.136;2024-02-16T10:55:58;14.60;99.90
12568;DHT22;6349;50.904;6.136;2024-02-16T10:58:00;14.70;99.90
12568;DHT22;6349;50.904;6.136;2024-02-16T11:00:00;14.70;99.90
12568;DHT22;6349;50.904;6.136;2024-02-16T11:02:07;14.60;99.90
12568;DHT22;6349;50.904;6.136;2024-02-16T11:04:11;14.60;99.90
12568;DHT22;6349;50.904;6.136;2024-02-16T11:06:15;14.50;99.90
12568;DHT22;6349;50.904;6.136;2024-02-16T11:08:20;14.50;99.90
12568;DHT22;6349;50.904;6.136;2024-02-16T11:10:21;14.50;99.90
12568;DHT22;6349;50.904;6.136;2024-02-16T11:12:22;14.40;99.90
12568;DHT22;6349;50.904;6.136;2024-02-16T11:14:22;14.40;99.90
12568;DHT22;6349;50.904;6.136;2024-02-16T11:16:24;14.40;99.90
12568;DHT22;6349;50.904;6.136;2024-02-16T11:18:25;14.40;99.90
12568;DHT22;6349;50.904;6.136;2024-02-16T11:20:26;14.40;99.90
12568;DHT22;6349;50.904;6.136;2024-02-16T11:22:28;14.40;99.90
12568;DHT22;6349;50.904;6.136;2024-02-16T11:24:32;14.40;99.90
12568;DHT22;6349;50.904;6.136;2024-02-16T11:26:42;14.30;99.90
12568;DHT22;6349;50.904;6.136;2024-02-16T11:28:43;14.30;99.90
12568;DHT22;6349;50.904;6.136;2024-02-16T11:30:45;14.30;99.90
12568;DHT22;6349;50.904;6.136;2024-02-16T11:32:46;14.30;99.90
12568;DHT22;6349;50.904;6.136;2024-02-16T11:34:47;14.40;99.90
12568;DHT22;6349;50.904;6.136;2024-02-16T11:36:47;14.40;99.90
12568;DHT22;6349;50.904;6.136;2024-02-16T11:38:48;14.40;99.90
12568;DHT22;6349;50.904;6.136;2024-02-16T11:41:07;14.40;99.90
12568;DHT22;6349;50.904;6.136;2024-02-16T11:43:20;14.40;99.90
12568;DHT22;6349;50.904;6.136;2024-02-16T11:45:22;14.40;99.90
12568;DHT22;6349;50.904;6.136;2024-02-16T11:47:24;14.30;99.90
12568;DHT22;6349;50.904;6.136;2024-02-16T11:49:29;14.30;99.90
12568;DHT22;6349;50.904;6.136;2024-02-16T11:51:29;14.30;99.90
12568;DHT22;6349;50.904;6.136;2024-02-16T11:53:30;14.30;99.90
12568;DHT22;6349;50.904;6.136;2024-02-16T11:55:31;14.30;99.90
12568;DHT22;6349;50.904;6.136;2024-02-16T11:57:34;14.20;99.90
12568;DHT22;6349;50.904;6.136;2024-02-16T11:59:35;14.20;99.90
12568;DHT22;6349;50.904;6.136;2024-02-16T12:01:35;14.20;99.90
12568;DHT22;6349;50.904;6.136;2024-02-16T12:03:41;14.20;99.90
12568;DHT22;6349;50.904;6.136;2024-02-16T12:05:50;14.20;99.90
12568;DHT22;6349;50.904;6.136;2024-02-16T12:07:50;14.20;99.90
12568;DHT22;6349;50.904;6.136;2024-02-16T12:10:01;14.20;99.90
12568;DHT22;6349;50.904;6.136;2024-02-16T12:12:05;14.20;99.90
12568;DHT22;6349;50.904;6.136;2024-02-16T12:14:06;14.20;99.90
12568;DHT22;6349;50.904;6.136;2024-02-16T12:16:07;14.10;99.90
12568;DHT22;6349;50.904;6.136;2024-02-16T12:18:08;14.10;99.90
12568;DHT22;6349;50.904;6.136;2024-02-16T12:20:12;14.10;99.90
12568;DHT22;6349;50.904;6.136;2024-02-16T12:22:17;14.10;99.90
12568;DHT22;6349;50.904;6.136;2024-02-16T12:24:19;14.10;99.90
12568;DHT22;6349;50.904;6.136;2024-02-16T12:26:20;14.10;99.90
12568;DHT22;6349;50.904;6.136;2024-02-16T12:28:24;14.10;99.90
12568;DHT22;6349;50.904;6.136;2024-02-16T12:30:25;14.00;99.90
12568;DHT22;6349;50.904;6.136;2024-02-16T12:32:26;14.00;99.90
12568;DHT22;6349;50.904;6.136;2024-02-16T12:34:27;14.00;99.90
12568;DHT22;6349;50.904;6.136;2024-02-16T12:36:28;14.00;99.90
12568;DHT22;6349;50.904;6.136;2024-02-16T12:38:29;14.00;99.90
12568;DHT22;6349;50.904;6.136;2024-02-16T12:40:29;14.00;99.90
12568;DHT22;6349;50.904;6.136;2024-02-16T12:42:30;13.90;99.90
12568;DHT22;6349;50.904;6.136;2024-02-16T12:44:30;13.90;99.90
12568;DHT22;6349;50.904;6.136;2024-02-16T12:46:32;13.90;99.90
12568;DHT22;6349;50.904;6.136;2024-02-16T12:48:32;13.90;99.90
12568;DHT22;6349;50.904;6.136;2024-02-16T12:50:33;13.90;99.90
12568;DHT22;6349;50.904;6.136;2024-02-16T12:52:34;13.80;99.90
12568;DHT22;6349;50.904;6.136;2024-02-16T12:54:38;13.80;99.90
12568;DHT22;6349;50.904;6.136;2024-02-16T12:56:39;13.80;99.90
12568;DHT22;6349;50.904;6.136;2024-02-16T12:58:40;13.80;99.90